»·PEaware :: N227T KSNA-KSNA

N227T :: KSNA-KSNA

FLIGHT INFORMATION

Flight Status: Arrived
Operator: Privately registered:
United States
More flights under this callsign
Pilot: Bill H. (23183)
Aircraft: CESSNA 172 SKYHAWK
(C172)
More flights by this aircraft type
Origin: KSNA John Wayne-Orange Co
United States
Destination: KSNA John Wayne-Orange Co
United States
More flights between these airports :: More routes between these airports
Route: KSNA - KSNA
File this flight plan on PilotEdge
Remarks: VFR Pattern Work
Altitude:
(Current/Filed)
1,000ft
Speed:
(Current/Filed)
110kts
Departed: 10-Feb-19 11:44 AM
Arrived: 10-Feb-19 12:47 PM
Distance/Time
Traveled:
0nm/1:03
Distance/Time
To Go:
Arrived

Flight Plot

Page will automatically refresh every two minutes.

Flight plan parsing failed; only flown route is shown


Map Options




Map Legend


Flown Route
Filed Route
Departure Airport
Arrival Airport
Navaid (VOR, NDB)
Fix

Horizontal Profiles

Position Reports

Time Latitude Longitude Heading Altitude Ground
Speed
10-Feb-19 11:00 33.671205 -117.867685 28 60ft 0kts
10-Feb-19 11:01 33.671205 -117.867685 28 60ft 0kts
10-Feb-19 11:02 33.671205 -117.867685 28 60ft 0kts
10-Feb-19 11:03 33.671205 -117.867685 28 60ft 0kts
10-Feb-19 11:04 33.671205 -117.867685 28 60ft 0kts
10-Feb-19 11:05 33.671205 -117.867685 28 60ft 0kts
10-Feb-19 11:06 33.671205 -117.867685 28 60ft 0kts
10-Feb-19 11:07 33.671205 -117.867685 28 60ft 0kts
10-Feb-19 11:08 33.671205 -117.867685 28 60ft 0kts
10-Feb-19 11:09 33.671205 -117.867685 28 60ft 0kts
10-Feb-19 11:10 33.671205 -117.867685 28 60ft 0kts
10-Feb-19 11:11 33.671205 -117.867685 28 60ft 0kts
10-Feb-19 11:12 33.671205 -117.867685 28 60ft 0kts
10-Feb-19 11:13 33.671205 -117.867685 28 60ft 0kts
10-Feb-19 11:14 33.671205 -117.867685 28 60ft 0kts
10-Feb-19 11:15 33.671205 -117.867685 28 60ft 0kts
10-Feb-19 11:16 33.671205 -117.867685 28 60ft 0kts
10-Feb-19 11:17 33.671205 -117.867685 28 60ft 0kts
10-Feb-19 11:18 33.671205 -117.867685 28 60ft 0kts
10-Feb-19 11:19 33.671205 -117.867685 28 60ft 0kts
10-Feb-19 11:20 33.671205 -117.867685 28 60ft 0kts
10-Feb-19 11:21 33.671205 -117.867685 28 60ft 0kts
10-Feb-19 11:22 33.671205 -117.867685 28 60ft 0kts
10-Feb-19 11:23 33.671205 -117.867685 28 60ft 0kts
10-Feb-19 11:24 33.671205 -117.867685 28 60ft 0kts
10-Feb-19 11:25 33.671205 -117.867685 28 60ft 0kts
10-Feb-19 11:26 33.671205 -117.867685 28 60ft 0kts
10-Feb-19 11:27 33.671205 -117.867685 28 60ft 0kts
10-Feb-19 11:28 33.671205 -117.867685 28 60ft 0kts
10-Feb-19 11:29 33.671205 -117.867685 28 60ft 0kts
10-Feb-19 11:30 33.671205 -117.867685 28 60ft 0kts
10-Feb-19 11:31 33.671205 -117.867685 28 60ft 0kts
10-Feb-19 11:32 33.671800 -117.868240 359 60ft 12kts
10-Feb-19 11:33 33.674787 -117.866658 27 60ft 12kts
10-Feb-19 11:34 33.677797 -117.864775 28 60ft 13kts
10-Feb-19 11:35 33.679947 -117.863595 305 60ft 3kts
10-Feb-19 11:36 33.679976 -117.863654 298 60ft 0kts
10-Feb-19 11:37 33.679976 -117.863654 298 60ft 0kts
10-Feb-19 11:38 33.679976 -117.863654 298 60ft 0kts
10-Feb-19 11:39 33.679976 -117.863654 298 60ft 0kts
10-Feb-19 11:40 33.679976 -117.863654 298 60ft 0kts
10-Feb-19 11:41 33.679976 -117.863654 298 60ft 0kts
10-Feb-19 11:42 33.679976 -117.863655 298 60ft 0kts
10-Feb-19 11:43 33.672677 -117.869346 211 318ft 73kts
10-Feb-19 11:44 33.652737 -117.870777 100 877ft 93kts
10-Feb-19 11:45 33.663822 -117.850239 23 1022ft 91kts
10-Feb-19 11:46 33.688924 -117.841911 357 972ft 102kts
10-Feb-19 11:47 33.684088 -117.861701 200 153ft 84kts
10-Feb-19 11:48 33.664426 -117.874214 200 586ft 83kts
10-Feb-19 11:49 33.646752 -117.870518 99 1083ft 93kts
10-Feb-19 11:50 33.660844 -117.848807 20 1126ft 102kts
10-Feb-19 11:51 33.684056 -117.841058 310 849ft 93kts
10-Feb-19 11:52 33.680035 -117.864247 203 81ft 66kts
10-Feb-19 11:53 33.663547 -117.874444 203 494ft 75kts
10-Feb-19 11:54 33.648613 -117.862666 103 1170ft 89kts
10-Feb-19 11:55 33.670319 -117.848524 22 1365ft 97kts
10-Feb-19 11:57 33.695162 -117.838429 324 848ft 104kts
10-Feb-19 11:58 33.688431 -117.858882 205 249ft 72kts
10-Feb-19 11:59 33.673418 -117.868491 207 139ft 73kts
10-Feb-19 12:00 33.657394 -117.868436 107 732ft 69kts
10-Feb-19 12:01 33.662851 -117.845531 18 1011ft 105kts
10-Feb-19 12:02 33.688304 -117.838464 328 801ft 85kts
10-Feb-19 12:03 33.687373 -117.859490 209 289ft 68kts
10-Feb-19 12:04 33.672283 -117.869247 205 169ft 81kts
10-Feb-19 12:05 33.652458 -117.872856 100 819ft 93kts
10-Feb-19 12:06 33.662661 -117.852361 12 1053ft 94kts
10-Feb-19 12:07 33.687699 -117.845264 15 1154ft 95kts
10-Feb-19 12:08 33.697669 -117.854631 184 691ft 96kts
10-Feb-19 12:09 33.680115 -117.864202 208 73ft 55kts
10-Feb-19 12:10 33.663251 -117.874914 206 429ft 78kts
10-Feb-19 12:11 33.648878 -117.866552 100 880ft 79kts
10-Feb-19 12:11 33.656917 -117.852196 9 1137ft 83kts
10-Feb-19 12:13 33.682300 -117.844426 17 984ft 79kts
10-Feb-19 12:14 33.692870 -117.853155 228 544ft 77kts
10-Feb-19 12:15 33.679933 -117.864279 207 77ft 52kts
10-Feb-19 12:15 33.667978 -117.871737 206 227ft 62kts
10-Feb-19 12:16 33.648332 -117.877988 119 867ft 88kts
10-Feb-19 12:18 33.651207 -117.845109 11 1003ft 107kts
10-Feb-19 12:19 33.678738 -117.842136 355 769ft 94kts
10-Feb-19 12:19 33.691626 -117.854735 264 621ft 89kts
10-Feb-19 12:20 33.672872 -117.868807 208 130ft 86kts
10-Feb-19 12:21 33.651285 -117.872873 106 807ft 92kts
10-Feb-19 12:22 33.658140 -117.848485 9 939ft 100kts
10-Feb-19 12:23 33.683285 -117.842793 9 769ft 89kts
10-Feb-19 12:24 33.685626 -117.860812 208 221ft 79kts
10-Feb-19 12:25 33.666739 -117.872680 206 339ft 88kts
10-Feb-19 12:26 33.649691 -117.866967 94 881ft 94kts
10-Feb-19 12:27 33.665708 -117.849590 3 916ft 107kts
10-Feb-19 12:28 33.693645 -117.849697 309 651ft 87kts
10-Feb-19 12:29 33.681361 -117.863385 206 91ft 60kts
10-Feb-19 12:30 33.664388 -117.874248 208 305ft 80kts
10-Feb-19 12:31 33.649017 -117.864694 93 823ft 98kts
10-Feb-19 12:32 33.669051 -117.847808 20 1091ft 103kts
10-Feb-19 12:33 33.697000 -117.840274 321 953ft 117kts
10-Feb-19 12:34 33.687665 -117.859361 206 227ft 66kts
10-Feb-19 12:35 33.672454 -117.869016 207 119ft 76kts
10-Feb-19 12:36 33.651373 -117.879927 170 642ft 91kts
10-Feb-19 12:37 33.645538 -117.854739 21 916ft 105kts
10-Feb-19 12:38 33.673263 -117.843043 18 973ft 111kts
10-Feb-19 12:39 33.693476 -117.852072 251 540ft 86kts
10-Feb-19 12:40 33.676489 -117.866463 208 60ft 64kts
10-Feb-19 12:41 33.653694 -117.879136 190 601ft 101kts
10-Feb-19 12:42 33.643082 -117.854360 34 1036ft 101kts
10-Feb-19 12:43 33.672785 -117.842613 14 932ft 122kts
10-Feb-19 12:44 33.699912 -117.842574 296 765ft 87kts
10-Feb-19 12:45 33.684014 -117.861815 204 147ft 84kts
10-Feb-19 12:46 33.673936 -117.867584 131 60ft 9kts
10-Feb-19 12:47 33.673877 -117.867483 121 60ft 0kts
10-Feb-19 12:48 33.673877 -117.867483 121 60ft 0kts
10-Feb-19 12:49 33.673877 -117.867483 121 60ft 0kts
10-Feb-19 12:50 33.672438 -117.867866 211 60ft 17kts
10-Feb-19 12:51 33.670434 -117.868747 216 60ft 0kts
10-Feb-19 12:52 33.670428 -117.868752 216 60ft 0kts
10-Feb-19 12:53 33.670428 -117.868752 216 60ft 0kts
10-Feb-19 12:54 33.670428 -117.868752 216 60ft 0kts
10-Feb-19 12:55 33.670428 -117.868752 216 60ft 0kts
10-Feb-19 12:56 33.670428 -117.868752 216 60ft 0kts
10-Feb-19 12:57 33.670428 -117.868752 216 60ft 0kts

Navigation Log

Ident Type
Flight plan parsing failed, navigation log unavailable